sensor_id;sensor_type;location;lat;lon;timestamp;P1;durP1;ratioP1;P2;durP2;ratioP2
18142;SDS011;9197;50.930;3.140;2023-07-28T00:02:11;9.03;;;7.00;;
18142;SDS011;9197;50.930;3.140;2023-07-28T00:04:38;12.33;;;5.77;;
18142;SDS011;9197;50.930;3.140;2023-07-28T00:07:06;8.43;;;5.80;;
18142;SDS011;9197;50.930;3.140;2023-07-28T00:09:33;6.90;;;5.40;;
18142;SDS011;9197;50.930;3.140;2023-07-28T00:12:00;7.63;;;5.13;;
18142;SDS011;9197;50.930;3.140;2023-07-28T00:14:29;7.97;;;4.82;;
18142;SDS011;9197;50.930;3.140;2023-07-28T00:16:56;7.20;;;5.60;;
18142;SDS011;9197;50.930;3.140;2023-07-28T00:19:23;10.37;;;6.27;;
18142;SDS011;9197;50.930;3.140;2023-07-28T00:21:51;10.70;;;5.30;;
18142;SDS011;9197;50.930;3.140;2023-07-28T00:24:21;7.63;;;5.67;;
18142;SDS011;9197;50.930;3.140;2023-07-28T00:26:48;9.57;;;6.18;;
18142;SDS011;9197;50.930;3.140;2023-07-28T00:29:15;9.97;;;5.90;;
18142;SDS011;9197;50.930;3.140;2023-07-28T00:31:44;7.67;;;5.73;;
18142;SDS011;9197;50.930;3.140;2023-07-28T00:34:11;9.97;;;5.87;;
18142;SDS011;9197;50.930;3.140;2023-07-28T00:36:38;11.10;;;5.97;;
18142;SDS011;9197;50.930;3.140;2023-07-28T00:39:07;9.20;;;5.63;;
18142;SDS011;9197;50.930;3.140;2023-07-28T00:41:34;7.87;;;5.67;;
18142;SDS011;9197;50.930;3.140;2023-07-28T00:44:01;8.33;;;5.57;;
18142;SDS011;9197;50.930;3.140;2023-07-28T00:46:28;11.40;;;5.97;;
18142;SDS011;9197;50.930;3.140;2023-07-28T00:48:57;9.50;;;5.60;;
18142;SDS011;9197;50.930;3.140;2023-07-28T00:51:24;7.97;;;4.97;;
18142;SDS011;9197;50.930;3.140;2023-07-28T00:53:51;5.47;;;4.70;;
18142;SDS011;9197;50.930;3.140;2023-07-28T00:56:19;7.60;;;5.20;;
18142;SDS011;9197;50.930;3.140;2023-07-28T00:58:47;8.68;;;4.82;;
18142;SDS011;9197;50.930;3.140;2023-07-28T01:01:15;8.75;;;4.55;;
18142;SDS011;9197;50.930;3.140;2023-07-28T01:03:43;9.05;;;4.47;;
18142;SDS011;9197;50.930;3.140;2023-07-28T01:06:13;5.20;;;4.68;;
18142;SDS011;9197;50.930;3.140;2023-07-28T01:08:42;4.90;;;4.40;;
18142;SDS011;9197;50.930;3.140;2023-07-28T01:11:12;7.63;;;4.13;;
18142;SDS011;9197;50.930;3.140;2023-07-28T01:13:39;7.70;;;4.57;;
18142;SDS011;9197;50.930;3.140;2023-07-28T01:16:06;7.30;;;4.43;;
18142;SDS011;9197;50.930;3.140;2023-07-28T01:18:34;8.23;;;3.83;;
18142;SDS011;9197;50.930;3.140;2023-07-28T01:21:02;6.07;;;4.57;;
18142;SDS011;9197;50.930;3.140;2023-07-28T01:23:34;6.20;;;4.35;;
18142;SDS011;9197;50.930;3.140;2023-07-28T01:26:05;6.75;;;4.85;;
18142;SDS011;9197;50.930;3.140;2023-07-28T01:28:34;6.95;;;4.22;;
18142;SDS011;9197;50.930;3.140;2023-07-28T01:31:02;5.05;;;4.25;;
18142;SDS011;9197;50.930;3.140;2023-07-28T01:33:29;6.38;;;4.20;;
18142;SDS011;9197;50.930;3.140;2023-07-28T01:35:56;8.55;;;4.47;;
18142;SDS011;9197;50.930;3.140;2023-07-28T01:38:25;7.68;;;4.43;;
18142;SDS011;9197;50.930;3.140;2023-07-28T01:40:53;5.10;;;3.97;;
18142;SDS011;9197;50.930;3.140;2023-07-28T01:43:20;6.53;;;4.57;;
18142;SDS011;9197;50.930;3.140;2023-07-28T01:45:49;5.63;;;4.38;;
18142;SDS011;9197;50.930;3.140;2023-07-28T01:48:16;7.20;;;4.47;;
18142;SDS011;9197;50.930;3.140;2023-07-28T01:50:43;8.82;;;5.32;;
18142;SDS011;9197;50.930;3.140;2023-07-28T01:53:10;7.23;;;4.80;;
18142;SDS011;9197;50.930;3.140;2023-07-28T01:55:37;7.93;;;4.40;;
18142;SDS011;9197;50.930;3.140;2023-07-28T01:58:05;4.70;;;4.30;;
18142;SDS011;9197;50.930;3.140;2023-07-28T02:00:32;4.18;;;3.65;;
18142;SDS011;9197;50.930;3.140;2023-07-28T02:03:01;7.40;;;4.40;;
18142;SDS011;9197;50.930;3.140;2023-07-28T02:05:28;4.07;;;3.78;;
18142;SDS011;9197;50.930;3.140;2023-07-28T02:07:56;5.27;;;4.20;;
18142;SDS011;9197;50.930;3.140;2023-07-28T02:10:23;7.25;;;3.72;;
18142;SDS011;9197;50.930;3.140;2023-07-28T02:12:50;4.10;;;3.60;;
18142;SDS011;9197;50.930;3.140;2023-07-28T02:15:18;3.92;;;3.20;;
18142;SDS011;9197;50.930;3.140;2023-07-28T02:17:45;5.00;;;3.03;;
18142;SDS011;9197;50.930;3.140;2023-07-28T02:20:14;4.68;;;3.03;;
18142;SDS011;9197;50.930;3.140;2023-07-28T02:22:41;5.90;;;2.70;;
18142;SDS011;9197;50.930;3.140;2023-07-28T02:25:08;5.68;;;2.67;;
18142;SDS011;9197;50.930;3.140;2023-07-28T02:27:36;2.67;;;2.38;;
18142;SDS011;9197;50.930;3.140;2023-07-28T02:30:03;4.13;;;2.60;;
18142;SDS011;9197;50.930;3.140;2023-07-28T02:32:31;4.25;;;2.65;;
18142;SDS011;9197;50.930;3.140;2023-07-28T02:34:58;3.17;;;2.30;;
18142;SDS011;9197;50.930;3.140;2023-07-28T02:37:27;3.90;;;3.00;;
18142;SDS011;9197;50.930;3.140;2023-07-28T02:39:54;5.60;;;3.35;;
18142;SDS011;9197;50.930;3.140;2023-07-28T02:42:21;5.22;;;3.08;;
18142;SDS011;9197;50.930;3.140;2023-07-28T02:44:50;5.28;;;3.40;;
18142;SDS011;9197;50.930;3.140;2023-07-28T02:47:17;4.15;;;3.20;;
18142;SDS011;9197;50.930;3.140;2023-07-28T02:49:44;3.17;;;2.95;;
18142;SDS011;9197;50.930;3.140;2023-07-28T02:52:11;4.93;;;3.05;;
18142;SDS011;9197;50.930;3.140;2023-07-28T02:54:40;4.72;;;3.30;;
18142;SDS011;9197;50.930;3.140;2023-07-28T02:57:07;5.28;;;3.42;;
18142;SDS011;9197;50.930;3.140;2023-07-28T02:59:34;3.17;;;2.65;;
18142;SDS011;9197;50.930;3.140;2023-07-28T03:02:02;5.93;;;3.33;;
18142;SDS011;9197;50.930;3.140;2023-07-28T03:04:29;3.88;;;3.45;;
18142;SDS011;9197;50.930;3.140;2023-07-28T03:06:56;4.05;;;3.58;;
18142;SDS011;9197;50.930;3.140;2023-07-28T03:09:23;6.47;;;4.22;;
18142;SDS011;9197;50.930;3.140;2023-07-28T03:11:52;6.55;;;4.70;;
18142;SDS011;9197;50.930;3.140;2023-07-28T03:14:19;5.22;;;3.97;;
18142;SDS011;9197;50.930;3.140;2023-07-28T03:16:46;6.38;;;4.75;;
18142;SDS011;9197;50.930;3.140;2023-07-28T03:19:14;5.18;;;3.85;;
18142;SDS011;9197;50.930;3.140;2023-07-28T03:21:42;5.72;;;4.18;;
18142;SDS011;9197;50.930;3.140;2023-07-28T03:24:09;6.82;;;4.50;;
18142;SDS011;9197;50.930;3.140;2023-07-28T03:26:37;8.57;;;4.18;;
18142;SDS011;9197;50.930;3.140;2023-07-28T03:29:05;6.25;;;4.53;;
18142;SDS011;9197;50.930;3.140;2023-07-28T03:31:33;6.47;;;4.63;;
18142;SDS011;9197;50.930;3.140;2023-07-28T03:34:00;5.72;;;4.82;;
18142;SDS011;9197;50.930;3.140;2023-07-28T03:36:28;9.45;;;4.97;;
18142;SDS011;9197;50.930;3.140;2023-07-28T03:38:55;8.43;;;5.07;;
18142;SDS011;9197;50.930;3.140;2023-07-28T03:41:22;9.57;;;5.35;;
18142;SDS011;9197;50.930;3.140;2023-07-28T03:43:49;5.40;;;4.80;;
18142;SDS011;9197;50.930;3.140;2023-07-28T03:46:18;7.68;;;4.93;;
18142;SDS011;9197;50.930;3.140;2023-07-28T03:48:45;9.68;;;5.57;;
18142;SDS011;9197;50.930;3.140;2023-07-28T03:51:12;9.35;;;4.43;;
18142;SDS011;9197;50.930;3.140;2023-07-28T03:53:40;6.30;;;4.97;;
18142;SDS011;9197;50.930;3.140;2023-07-28T03:56:07;9.60;;;5.55;;
18142;SDS011;9197;50.930;3.140;2023-07-28T03:58:34;8.88;;;5.18;;
18142;SDS011;9197;50.930;3.140;2023-07-28T04:01:01;8.48;;;5.28;;
18142;SDS011;9197;50.930;3.140;2023-07-28T04:03:33;7.85;;;5.18;;
18142;SDS011;9197;50.930;3.140;2023-07-28T04:06:04;11.00;;;5.80;;
18142;SDS011;9197;50.930;3.140;2023-07-28T04:08:32;12.03;;;7.00;;
18142;SDS011;9197;50.930;3.140;2023-07-28T04:11:00;10.10;;;6.07;;
18142;SDS011;9197;50.930;3.140;2023-07-28T04:13:27;8.60;;;6.18;;
18142;SDS011;9197;50.930;3.140;2023-07-28T04:15:54;11.10;;;7.13;;
18142;SDS011;9197;50.930;3.140;2023-07-28T04:18:21;16.33;;;6.57;;
18142;SDS011;9197;50.930;3.140;2023-07-28T04:20:50;7.57;;;6.13;;
18142;SDS011;9197;50.930;3.140;2023-07-28T04:23:17;9.50;;;6.72;;
18142;SDS011;9197;50.930;3.140;2023-07-28T04:25:44;14.00;;;7.50;;
18142;SDS011;9197;50.930;3.140;2023-07-28T04:28:11;14.50;;;6.90;;
18142;SDS011;9197;50.930;3.140;2023-07-28T04:30:38;10.53;;;7.40;;
18142;SDS011;9197;50.930;3.140;2023-07-28T04:33:06;11.73;;;7.07;;
18142;SDS011;9197;50.930;3.140;2023-07-28T04:35:34;10.77;;;6.40;;
18142;SDS011;9197;50.930;3.140;2023-07-28T04:38:02;10.13;;;6.27;;
18142;SDS011;9197;50.930;3.140;2023-07-28T04:40:30;10.17;;;6.20;;
18142;SDS011;9197;50.930;3.140;2023-07-28T04:42:59;8.45;;;5.70;;
18142;SDS011;9197;50.930;3.140;2023-07-28T04:45:26;8.50;;;5.87;;
18142;SDS011;9197;50.930;3.140;2023-07-28T04:47:53;14.07;;;6.67;;
18142;SDS011;9197;50.930;3.140;2023-07-28T04:50:21;11.93;;;6.33;;
18142;SDS011;9197;50.930;3.140;2023-07-28T04:52:48;9.57;;;6.27;;
18142;SDS011;9197;50.930;3.140;2023-07-28T04:55:16;11.27;;;5.43;;
18142;SDS011;9197;50.930;3.140;2023-07-28T04:57:44;8.67;;;5.10;;
18142;SDS011;9197;50.930;3.140;2023-07-28T05:00:11;11.77;;;5.93;;
18142;SDS011;9197;50.930;3.140;2023-07-28T05:02:38;11.48;;;5.47;;
18142;SDS011;9197;50.930;3.140;2023-07-28T05:05:05;8.30;;;4.20;;
18142;SDS011;9197;50.930;3.140;2023-07-28T05:07:32;9.47;;;4.83;;
18142;SDS011;9197;50.930;3.140;2023-07-28T05:09:58;10.40;;;4.83;;
18142;SDS011;9197;50.930;3.140;2023-07-28T05:12:27;7.67;;;4.67;;
18142;SDS011;9197;50.930;3.140;2023-07-28T05:14:54;7.93;;;5.00;;
18142;SDS011;9197;50.930;3.140;2023-07-28T05:17:21;8.67;;;4.57;;
18142;SDS011;9197;50.930;3.140;2023-07-28T05:19:49;7.23;;;5.20;;
18142;SDS011;9197;50.930;3.140;2023-07-28T05:22:16;8.53;;;6.00;;
18142;SDS011;9197;50.930;3.140;2023-07-28T05:24:44;9.37;;;5.47;;
18142;SDS011;9197;50.930;3.140;2023-07-28T05:27:11;11.33;;;5.60;;
18142;SDS011;9197;50.930;3.140;2023-07-28T05:29:39;9.90;;;5.73;;
18142;SDS011;9197;50.930;3.140;2023-07-28T05:32:07;10.50;;;5.67;;
18142;SDS011;9197;50.930;3.140;2023-07-28T05:34:34;10.53;;;5.90;;
18142;SDS011;9197;50.930;3.140;2023-07-28T05:37:01;10.73;;;6.40;;
18142;SDS011;9197;50.930;3.140;2023-07-28T05:39:29;10.93;;;7.57;;
18142;SDS011;9197;50.930;3.140;2023-07-28T05:41:56;12.50;;;6.93;;
18142;SDS011;9197;50.930;3.140;2023-07-28T05:44:23;14.57;;;7.27;;
18142;SDS011;9197;50.930;3.140;2023-07-28T05:46:52;15.38;;;8.52;;
18142;SDS011;9197;50.930;3.140;2023-07-28T05:49:19;14.40;;;8.77;;
18142;SDS011;9197;50.930;3.140;2023-07-28T05:51:46;13.57;;;9.10;;
18142;SDS011;9197;50.930;3.140;2023-07-28T05:54:13;17.87;;;10.20;;
18142;SDS011;9197;50.930;3.140;2023-07-28T05:56:41;15.27;;;9.40;;
18142;SDS011;9197;50.930;3.140;2023-07-28T05:59:08;15.70;;;9.77;;
18142;SDS011;9197;50.930;3.140;2023-07-28T06:01:35;16.97;;;10.23;;
18142;SDS011;9197;50.930;3.140;2023-07-28T06:04:04;17.60;;;10.17;;
18142;SDS011;9197;50.930;3.140;2023-07-28T06:06:31;16.63;;;9.30;;
18142;SDS011;9197;50.930;3.140;2023-07-28T06:08:58;14.88;;;10.23;;
18142;SDS011;9197;50.930;3.140;2023-07-28T06:11:25;17.70;;;10.13;;
18142;SDS011;9197;50.930;3.140;2023-07-28T06:13:53;15.63;;;9.93;;
18142;SDS011;9197;50.930;3.140;2023-07-28T06:16:20;20.10;;;11.17;;
18142;SDS011;9197;50.930;3.140;2023-07-28T06:18:47;16.50;;;9.80;;
18142;SDS011;9197;50.930;3.140;2023-07-28T06:21:16;15.03;;;10.23;;
18142;SDS011;9197;50.930;3.140;2023-07-28T06:23:43;19.60;;;10.83;;
18142;SDS011;9197;50.930;3.140;2023-07-28T06:26:10;18.47;;;10.60;;
18142;SDS011;9197;50.930;3.140;2023-07-28T06:28:37;16.50;;;10.75;;
18142;SDS011;9197;50.930;3.140;2023-07-28T06:31:05;17.13;;;9.90;;
18142;SDS011;9197;50.930;3.140;2023-07-28T06:33:33;16.08;;;9.20;;
18142;SDS011;9197;50.930;3.140;2023-07-28T06:36:01;14.38;;;9.45;;
18142;SDS011;9197;50.930;3.140;2023-07-28T06:38:30;13.77;;;10.05;;
18142;SDS011;9197;50.930;3.140;2023-07-28T06:40:57;16.15;;;8.77;;
18142;SDS011;9197;50.930;3.140;2023-07-28T06:43:25;19.67;;;10.13;;
18142;SDS011;9197;50.930;3.140;2023-07-28T06:45:52;13.65;;;8.60;;
18142;SDS011;9197;50.930;3.140;2023-07-28T06:48:19;13.10;;;8.75;;
18142;SDS011;9197;50.930;3.140;2023-07-28T06:50:46;12.30;;;7.97;;
18142;SDS011;9197;50.930;3.140;2023-07-28T06:53:14;16.65;;;8.07;;
18142;SDS011;9197;50.930;3.140;2023-07-28T06:55:44;10.27;;;8.00;;
18142;SDS011;9197;50.930;3.140;2023-07-28T06:58:11;14.73;;;9.57;;
18142;SDS011;9197;50.930;3.140;2023-07-28T07:00:38;13.40;;;8.80;;
18142;SDS011;9197;50.930;3.140;2023-07-28T07:03:05;11.52;;;7.65;;
18142;SDS011;9197;50.930;3.140;2023-07-28T07:05:32;11.27;;;8.25;;
18142;SDS011;9197;50.930;3.140;2023-07-28T07:07:59;11.57;;;6.72;;
18142;SDS011;9197;50.930;3.140;2023-07-28T07:10:27;7.80;;;6.93;;
18142;SDS011;9197;50.930;3.140;2023-07-28T07:12:57;9.52;;;7.63;;
18142;SDS011;9197;50.930;3.140;2023-07-28T07:15:24;9.68;;;7.28;;
18142;SDS011;9197;50.930;3.140;2023-07-28T07:17:51;10.50;;;7.57;;
18142;SDS011;9197;50.930;3.140;2023-07-28T07:20:18;8.40;;;7.43;;
18142;SDS011;9197;50.930;3.140;2023-07-28T07:22:45;10.10;;;7.60;;
18142;SDS011;9197;50.930;3.140;2023-07-28T07:25:12;8.10;;;6.47;;
18142;SDS011;9197;50.930;3.140;2023-07-28T07:27:40;7.03;;;6.03;;
18142;SDS011;9197;50.930;3.140;2023-07-28T07:30:09;6.93;;;5.78;;
18142;SDS011;9197;50.930;3.140;2023-07-28T07:32:36;10.88;;;4.80;;
18142;SDS011;9197;50.930;3.140;2023-07-28T07:35:04;7.15;;;5.55;;
18142;SDS011;9197;50.930;3.140;2023-07-28T07:37:31;6.25;;;5.65;;
18142;SDS011;9197;50.930;3.140;2023-07-28T07:39:58;9.32;;;6.03;;
18142;SDS011;9197;50.930;3.140;2023-07-28T07:42:26;6.70;;;6.10;;
18142;SDS011;9197;50.930;3.140;2023-07-28T07:44:53;6.28;;;4.82;;
18142;SDS011;9197;50.930;3.140;2023-07-28T07:47:22;7.90;;;5.55;;
18142;SDS011;9197;50.930;3.140;2023-07-28T07:49:49;5.93;;;5.22;;
18142;SDS011;9197;50.930;3.140;2023-07-28T07:52:16;6.15;;;4.60;;
18142;SDS011;9197;50.930;3.140;2023-07-28T07:54:43;5.55;;;4.07;;
18142;SDS011;9197;50.930;3.140;2023-07-28T07:57:10;4.57;;;4.15;;
18142;SDS011;9197;50.930;3.140;2023-07-28T07:59:38;8.27;;;4.30;;
18142;SDS011;9197;50.930;3.140;2023-07-28T08:02:05;3.92;;;3.63;;
18142;SDS011;9197;50.930;3.140;2023-07-28T08:04:34;4.45;;;3.47;;
18142;SDS011;9197;50.930;3.140;2023-07-28T08:07:01;5.80;;;3.55;;
18142;SDS011;9197;50.930;3.140;2023-07-28T08:09:29;4.18;;;3.05;;
18142;SDS011;9197;50.930;3.140;2023-07-28T08:11:56;6.55;;;3.58;;
18142;SDS011;9197;50.930;3.140;2023-07-28T08:14:24;4.53;;;3.65;;
18142;SDS011;9197;50.930;3.140;2023-07-28T08:16:51;5.50;;;3.08;;
18142;SDS011;9197;50.930;3.140;2023-07-28T08:19:19;3.67;;;3.30;;
18142;SDS011;9197;50.930;3.140;2023-07-28T08:21:48;4.93;;;3.13;;
18142;SDS011;9197;50.930;3.140;2023-07-28T08:24:15;4.20;;;2.65;;
18142;SDS011;9197;50.930;3.140;2023-07-28T08:26:42;4.90;;;2.97;;
18142;SDS011;9197;50.930;3.140;2023-07-28T08:29:09;5.65;;;2.83;;
18142;SDS011;9197;50.930;3.140;2023-07-28T08:31:37;4.05;;;3.03;;
18142;SDS011;9197;50.930;3.140;2023-07-28T08:34:04;5.05;;;2.50;;
18142;SDS011;9197;50.930;3.140;2023-07-28T08:36:31;3.55;;;2.70;;
18142;SDS011;9197;50.930;3.140;2023-07-28T08:39:00;2.30;;;2.10;;
18142;SDS011;9197;50.930;3.140;2023-07-28T08:41:27;3.75;;;2.60;;
18142;SDS011;9197;50.930;3.140;2023-07-28T08:43:54;4.68;;;2.75;;
18142;SDS011;9197;50.930;3.140;2023-07-28T08:46:22;10.52;;;2.55;;
18142;SDS011;9197;50.930;3.140;2023-07-28T08:48:49;4.72;;;2.45;;
18142;SDS011;9197;50.930;3.140;2023-07-28T08:51:16;2.80;;;2.10;;
18142;SDS011;9197;50.930;3.140;2023-07-28T08:53:44;2.08;;;1.88;;
18142;SDS011;9197;50.930;3.140;2023-07-28T08:56:12;2.22;;;1.95;;
18142;SDS011;9197;50.930;3.140;2023-07-28T08:58:39;3.00;;;1.65;;
18142;SDS011;9197;50.930;3.140;2023-07-28T09:01:06;1.98;;;1.23;;
18142;SDS011;9197;50.930;3.140;2023-07-28T09:03:34;1.77;;;1.23;;
18142;SDS011;9197;50.930;3.140;2023-07-28T09:06:06;1.95;;;1.33;;
18142;SDS011;9197;50.930;3.140;2023-07-28T09:08:34;1.20;;;1.02;;
18142;SDS011;9197;50.930;3.140;2023-07-28T09:11:02;1.60;;;0.82;;
18142;SDS011;9197;50.930;3.140;2023-07-28T09:13:36;1.52;;;1.00;;
18142;SDS011;9197;50.930;3.140;2023-07-28T09:16:09;1.35;;;1.00;;
18142;SDS011;9197;50.930;3.140;2023-07-28T09:18:43;0.82;;;0.75;;
18142;SDS011;9197;50.930;3.140;2023-07-28T09:21:15;2.55;;;0.82;;
18142;SDS011;9197;50.930;3.140;2023-07-28T09:23:45;1.17;;;0.85;;
18142;SDS011;9197;50.930;3.140;2023-07-28T09:26:13;0.77;;;0.75;;
18142;SDS011;9197;50.930;3.140;2023-07-28T09:28:44;1.15;;;0.63;;
18142;SDS011;9197;50.930;3.140;2023-07-28T09:31:11;1.58;;;0.65;;
18142;SDS011;9197;50.930;3.140;2023-07-28T09:33:39;1.25;;;0.80;;
18142;SDS011;9197;50.930;3.140;2023-07-28T09:36:12;1.00;;;0.90;;
18142;SDS011;9197;50.930;3.140;2023-07-28T09:38:41;0.90;;;0.85;;
18142;SDS011;9197;50.930;3.140;2023-07-28T09:41:09;0.65;;;0.60;;
18142;SDS011;9197;50.930;3.140;2023-07-28T09:43:36;0.52;;;0.52;;
18142;SDS011;9197;50.930;3.140;2023-07-28T09:46:06;1.55;;;0.77;;
18142;SDS011;9197;50.930;3.140;2023-07-28T09:48:33;0.80;;;0.80;;
18142;SDS011;9197;50.930;3.140;2023-07-28T09:51:02;1.42;;;0.80;;
18142;SDS011;9197;50.930;3.140;2023-07-28T09:53:35;1.38;;;1.00;;
18142;SDS011;9197;50.930;3.140;2023-07-28T09:56:03;1.88;;;0.90;;
18142;SDS011;9197;50.930;3.140;2023-07-28T09:58:31;1.58;;;0.88;;
18142;SDS011;9197;50.930;3.140;2023-07-28T10:01:00;1.40;;;0.90;;
18142;SDS011;9197;50.930;3.140;2023-07-28T10:03:32;3.17;;;1.20;;
18142;SDS011;9197;50.930;3.140;2023-07-28T10:05:59;1.63;;;1.10;;
18142;SDS011;9197;50.930;3.140;2023-07-28T10:08:26;2.25;;;0.93;;
18142;SDS011;9197;50.930;3.140;2023-07-28T10:10:54;0.73;;;0.73;;
18142;SDS011;9197;50.930;3.140;2023-07-28T10:13:22;1.80;;;1.02;;
18142;SDS011;9197;50.930;3.140;2023-07-28T10:15:49;2.00;;;1.23;;
18142;SDS011;9197;50.930;3.140;2023-07-28T10:18:19;1.33;;;0.90;;
18142;SDS011;9197;50.930;3.140;2023-07-28T10:20:48;2.00;;;1.02;;
18142;SDS011;9197;50.930;3.140;2023-07-28T10:23:16;1.83;;;1.30;;
18142;SDS011;9197;50.930;3.140;2023-07-28T10:25:44;2.58;;;0.93;;
18142;SDS011;9197;50.930;3.140;2023-07-28T10:28:25;1.67;;;0.90;;
18142;SDS011;9197;50.930;3.140;2023-07-28T10:30:53;1.23;;;1.13;;
18142;SDS011;9197;50.930;3.140;2023-07-28T10:33:30;3.10;;;1.23;;
18142;SDS011;9197;50.930;3.140;2023-07-28T10:35:59;1.63;;;1.10;;
18142;SDS011;9197;50.930;3.140;2023-07-28T10:38:33;1.92;;;1.52;;
18142;SDS011;9197;50.930;3.140;2023-07-28T10:41:05;2.72;;;1.30;;
18142;SDS011;9197;50.930;3.140;2023-07-28T10:43:33;1.60;;;1.38;;
18142;SDS011;9197;50.930;3.140;2023-07-28T10:46:00;1.90;;;1.17;;
18142;SDS011;9197;50.930;3.140;2023-07-28T10:48:27;3.08;;;1.48;;
18142;SDS011;9197;50.930;3.140;2023-07-28T10:50:55;2.20;;;1.35;;
18142;SDS011;9197;50.930;3.140;2023-07-28T10:53:23;2.60;;;1.80;;
18142;SDS011;9197;50.930;3.140;2023-07-28T10:55:50;3.67;;;1.75;;
18142;SDS011;9197;50.930;3.140;2023-07-28T10:58:17;2.85;;;1.45;;
18142;SDS011;9197;50.930;3.140;2023-07-28T11:00:46;3.17;;;1.65;;
18142;SDS011;9197;50.930;3.140;2023-07-28T11:03:13;2.97;;;1.38;;
18142;SDS011;9197;50.930;3.140;2023-07-28T11:05:40;1.88;;;1.20;;
18142;SDS011;9197;50.930;3.140;2023-07-28T11:08:07;3.65;;;1.60;;
18142;SDS011;9197;50.930;3.140;2023-07-28T11:10:36;3.58;;;1.15;;
18142;SDS011;9197;50.930;3.140;2023-07-28T11:13:05;3.47;;;1.70;;
18142;SDS011;9197;50.930;3.140;2023-07-28T11:15:33;2.97;;;1.58;;
18142;SDS011;9197;50.930;3.140;2023-07-28T11:18:06;1.80;;;1.70;;
18142;SDS011;9197;50.930;3.140;2023-07-28T11:20:34;2.58;;;1.45;;
18142;SDS011;9197;50.930;3.140;2023-07-28T11:23:02;1.80;;;1.33;;
18142;SDS011;9197;50.930;3.140;2023-07-28T11:25:30;3.20;;;1.17;;
18142;SDS011;9197;50.930;3.140;2023-07-28T11:27:59;1.80;;;1.30;;
18142;SDS011;9197;50.930;3.140;2023-07-28T11:30:28;1.60;;;1.00;;
18142;SDS011;9197;50.930;3.140;2023-07-28T11:32:55;1.05;;;0.70;;
18142;SDS011;9197;50.930;3.140;2023-07-28T11:35:22;2.90;;;1.40;;
18142;SDS011;9197;50.930;3.140;2023-07-28T11:37:50;1.38;;;0.65;;
18142;SDS011;9197;50.930;3.140;2023-07-28T11:40:19;1.27;;;1.00;;
18142;SDS011;9197;50.930;3.140;2023-07-28T11:42:47;5.05;;;1.02;;
18142;SDS011;9197;50.930;3.140;2023-07-28T11:45:16;1.77;;;1.00;;
18142;SDS011;9197;50.930;3.140;2023-07-28T11:47:56;1.42;;;1.20;;
18142;SDS011;9197;50.930;3.140;2023-07-28T11:50:24;2.35;;;0.93;;
18142;SDS011;9197;50.930;3.140;2023-07-28T11:52:52;2.30;;;1.20;;
18142;SDS011;9197;50.930;3.140;2023-07-28T11:55:21;1.13;;;0.68;;
18142;SDS011;9197;50.930;3.140;2023-07-28T11:57:49;1.25;;;1.15;;
18142;SDS011;9197;50.930;3.140;2023-07-28T12:00:20;1.42;;;1.20;;
18142;SDS011;9197;50.930;3.140;2023-07-28T12:03:00;1.05;;;1.00;;
18142;SDS011;9197;50.930;3.140;2023-07-28T12:05:28;1.90;;;1.27;;
18142;SDS011;9197;50.930;3.140;2023-07-28T12:07:56;1.60;;;1.05;;
18142;SDS011;9197;50.930;3.140;2023-07-28T12:10:23;1.27;;;1.10;;
18142;SDS011;9197;50.930;3.140;2023-07-28T12:12:50;1.95;;;0.80;;
18142;SDS011;9197;50.930;3.140;2023-07-28T12:15:19;1.30;;;1.20;;
18142;SDS011;9197;50.930;3.140;2023-07-28T12:18:00;1.05;;;0.95;;
18142;SDS011;9197;50.930;3.140;2023-07-28T12:20:32;1.15;;;1.00;;
18142;SDS011;9197;50.930;3.140;2023-07-28T12:22:59;2.58;;;1.20;;
18142;SDS011;9197;50.930;3.140;2023-07-28T12:25:27;1.10;;;0.95;;
18142;SDS011;9197;50.930;3.140;2023-07-28T12:27:54;2.88;;;0.98;;
18142;SDS011;9197;50.930;3.140;2023-07-28T12:30:23;1.98;;;1.17;;
18142;SDS011;9197;50.930;3.140;2023-07-28T12:32:52;1.88;;;1.05;;
18142;SDS011;9197;50.930;3.140;2023-07-28T12:35:20;1.42;;;1.17;;
18142;SDS011;9197;50.930;3.140;2023-07-28T12:37:48;4.03;;;0.90;;
18142;SDS011;9197;50.930;3.140;2023-07-28T12:40:16;2.22;;;0.90;;
18142;SDS011;9197;50.930;3.140;2023-07-28T12:42:44;2.80;;;1.02;;
18142;SDS011;9197;50.930;3.140;2023-07-28T12:45:13;1.90;;;0.95;;
18142;SDS011;9197;50.930;3.140;2023-07-28T12:47:42;4.63;;;0.95;;
18142;SDS011;9197;50.930;3.140;2023-07-28T12:50:09;1.73;;;1.00;;
18142;SDS011;9197;50.930;3.140;2023-07-28T12:52:37;1.60;;;0.75;;
18142;SDS011;9197;50.930;3.140;2023-07-28T12:55:04;0.73;;;0.60;;
18142;SDS011;9197;50.930;3.140;2023-07-28T12:57:31;1.10;;;0.68;;
18142;SDS011;9197;50.930;3.140;2023-07-28T12:59:59;5.90;;;1.17;;
18142;SDS011;9197;50.930;3.140;2023-07-28T13:02:26;1.00;;;0.90;;
18142;SDS011;9197;50.930;3.140;2023-07-28T13:04:55;0.98;;;0.90;;
18142;SDS011;9197;50.930;3.140;2023-07-28T13:07:22;0.70;;;0.70;;
18142;SDS011;9197;50.930;3.140;2023-07-28T13:09:49;2.47;;;1.20;;
18142;SDS011;9197;50.930;3.140;2023-07-28T13:12:17;0.70;;;0.70;;
18142;SDS011;9197;50.930;3.140;2023-07-28T13:14:45;1.65;;;0.95;;
18142;SDS011;9197;50.930;3.140;2023-07-28T13:17:13;1.73;;;0.75;;
18142;SDS011;9197;50.930;3.140;2023-07-28T13:19:41;2.55;;;1.10;;
18142;SDS011;9197;50.930;3.140;2023-07-28T13:22:10;2.95;;;1.20;;
18142;SDS011;9197;50.930;3.140;2023-07-28T13:24:38;0.77;;;0.77;;
18142;SDS011;9197;50.930;3.140;2023-07-28T13:27:06;1.38;;;1.17;;
18142;SDS011;9197;50.930;3.140;2023-07-28T13:29:33;2.20;;;1.42;;
18142;SDS011;9197;50.930;3.140;2023-07-28T14:02:37;3.95;;;1.33;;
18142;SDS011;9197;50.930;3.140;2023-07-28T14:05:05;1.73;;;0.90;;
18142;SDS011;9197;50.930;3.140;2023-07-28T14:07:32;1.40;;;0.80;;
18142;SDS011;9197;50.930;3.140;2023-07-28T14:09:59;1.25;;;0.93;;
18142;SDS011;9197;50.930;3.140;2023-07-28T14:12:27;1.13;;;0.90;;
18142;SDS011;9197;50.930;3.140;2023-07-28T14:14:54;0.80;;;0.80;;
18142;SDS011;9197;50.930;3.140;2023-07-28T14:17:21;1.25;;;0.70;;
18142;SDS011;9197;50.930;3.140;2023-07-28T14:19:50;0.98;;;0.77;;
18142;SDS011;9197;50.930;3.140;2023-07-28T14:22:17;2.10;;;1.00;;
18142;SDS011;9197;50.930;3.140;2023-07-28T14:24:44;3.08;;;0.90;;
18142;SDS011;9197;50.930;3.140;2023-07-28T14:27:11;1.48;;;0.80;;
18142;SDS011;9197;50.930;3.140;2023-07-28T14:29:38;1.27;;;0.90;;
18142;SDS011;9197;50.930;3.140;2023-07-28T14:32:06;2.47;;;1.20;;
18142;SDS011;9197;50.930;3.140;2023-07-28T14:34:34;1.02;;;0.80;;
18142;SDS011;9197;50.930;3.140;2023-07-28T14:37:03;1.20;;;0.70;;
18142;SDS011;9197;50.930;3.140;2023-07-28T14:39:31;0.80;;;0.80;;
18142;SDS011;9197;50.930;3.140;2023-07-28T14:41:58;0.95;;;0.88;;
18142;SDS011;9197;50.930;3.140;2023-07-28T14:44:25;0.70;;;0.70;;
18142;SDS011;9197;50.930;3.140;2023-07-28T14:46:53;1.00;;;0.82;;
18142;SDS011;9197;50.930;3.140;2023-07-28T14:49:20;1.20;;;0.75;;
18142;SDS011;9197;50.930;3.140;2023-07-28T14:51:47;0.93;;;0.88;;
18142;SDS011;9197;50.930;3.140;2023-07-28T14:54:16;1.10;;;0.90;;
18142;SDS011;9197;50.930;3.140;2023-07-28T14:56:43;1.20;;;0.80;;
18142;SDS011;9197;50.930;3.140;2023-07-28T14:59:10;0.95;;;0.80;;
18142;SDS011;9197;50.930;3.140;2023-07-28T15:01:37;0.70;;;0.70;;
18142;SDS011;9197;50.930;3.140;2023-07-28T15:04:04;1.85;;;0.90;;
18142;SDS011;9197;50.930;3.140;2023-07-28T15:06:32;0.98;;;0.98;;
18142;SDS011;9197;50.930;3.140;2023-07-28T15:08:59;1.38;;;0.93;;
18142;SDS011;9197;50.930;3.140;2023-07-28T15:11:28;0.65;;;0.65;;
18142;SDS011;9197;50.930;3.140;2023-07-28T15:13:55;1.27;;;0.70;;
18142;SDS011;9197;50.930;3.140;2023-07-28T15:16:23;0.98;;;0.98;;
18142;SDS011;9197;50.930;3.140;2023-07-28T15:18:50;1.20;;;1.00;;
18142;SDS011;9197;50.930;3.140;2023-07-28T15:21:19;1.48;;;1.00;;
18142;SDS011;9197;50.930;3.140;2023-07-28T15:23:52;1.10;;;1.00;;
18142;SDS011;9197;50.930;3.140;2023-07-28T15:26:23;1.23;;;1.10;;
18142;SDS011;9197;50.930;3.140;2023-07-28T15:28:52;1.15;;;1.10;;
18142;SDS011;9197;50.930;3.140;2023-07-28T15:31:22;0.93;;;0.90;;
18142;SDS011;9197;50.930;3.140;2023-07-28T15:33:50;0.80;;;0.80;;